Morrison, Iowa
Current Conditions -  °F | °C
As of 5:53 AM on Thursday 29 Jan 2015 (Local Time) from KMIW Reporting Station
Overcast Overcast  
Wind Chill: 22°   Ceiling: 1100
Heat Index: 34°   Visibility: 10mi
Dew Point: 31°   Wind: 21mph
Humidity: 89%   Direction: 320°NW
Pressure: 29.99"   Gusts: 31mph
Location:  42.34°N, 92.67°W
Report Text: KMIW 291153Z AUTO 32018G27KT 10SM OVC011 01/M01 A2999 RMK AO2 PK WND 32027/1147 SLP165 T00111006 10011 20006 51041
Loading
Personal Weather Stations






























Interactive Weather Map New forecast layout! Learn more

10-Day Weather Forecast

Advertisements
Track Severe Weather on mobile